Northern Mariner — WDD2558 — position and weather

sailwx.info

Track history (hours):
 
Tides and Currents Weather Stations Pressure Air Temp Water Temp Dewpoint Dewpoint Depression Visibility Wind Speed Wind Dir Waves Ship Positions

Northern Mariner

Owner: LMW Investmrnts Inc., San Diego, CA. More information available from US FCC via Universal Licensing System and Coast Guard Vessel Documentation Center.

Last reported at 2018-Feb-22 10:39 UTC. Time now 2018-Feb-26 01:57 UTC.
Position N 32°39' W 117°22'.

Length 22 m; draft 3 m.

Type: Towing. MMSI: 367116840.

Date/timePositionNaut miles runAvg speedWind from/ knotsBaromVisibWave heightAir tempDewpointWater temp
2018-Feb-22 10:39N 32°39' W 117°22'1 4.7
2018-Feb-22 10:30N 32°39' W 117°23'2 4.8
2018-Feb-22 10:00N 32°40' W 117°25'2 4.7
2018-Feb-22 09:30N 32°40' W 117°28'2 4.9
2018-Feb-22 09:00N 32°41' W 117°31'3 4.9
2018-Feb-22 08:29N 32°42' W 117°34'2 5.0
2018-Feb-22 07:59N 32°43' W 117°36'2 5.0
2018-Feb-22 07:30N 32°44' W 117°39'3 5.2
2018-Feb-22 07:00N 32°45' W 117°42'2 0.1
2018-Feb-21 05:05N 32°43' W 117°44'1 5.4
2018-Feb-21 04:59N 32°43' W 117°44'6 5.1
2018-Feb-21 03:48N 32°42' W 117°37'2 5.1
2018-Feb-21 03:29N 32°42' W 117°35'3 5.1
2018-Feb-21 03:00N 32°41' W 117°32'3 5.1
2018-Feb-21 02:30N 32°40' W 117°29'3 5.2
2018-Feb-21 02:00N 32°40' W 117°26'  
2018-Feb-15 12:58N 32°43' W 117°12'7 5.7
2018-Feb-15 11:50N 32°37' W 117°15'2 5.1
2018-Feb-15 11:29N 32°37' W 117°17'3 4.8
2018-Feb-15 10:53N 32°39' W 117°20'2 5.4
2018-Feb-15 10:30N 32°39' W 117°23'3 5.4
2018-Feb-15 10:00N 32°41' W 117°26'3 5.3
2018-Feb-15 09:30N 32°42' W 117°28'3 5.6
2018-Feb-15 09:00N 32°43' W 117°32'3 5.4
2018-Feb-15 08:30N 32°44' W 117°35'3 5.4
2018-Feb-15 08:00N 32°44' W 117°38'3 5.5
2018-Feb-15 07:30N 32°45' W 117°41'4 0.2
2018-Feb-14 05:45N 32°44' W 117°45'1 5.3
2018-Feb-14 05:30N 32°44' W 117°44'3 5.3
2018-Feb-14 05:00N 32°43' W 117°41'3 5.5
2018-Feb-14 04:27N 32°42' W 117°37'3 5.6
2018-Feb-14 03:58N 32°41' W 117°34'3 5.4
2018-Feb-14 03:30N 32°41' W 117°31'3 5.4
2018-Feb-14 03:00N 32°40' W 117°28'  
Track history (hours):
 
Tides and Currents Weather Stations Pressure Air Temp Water Temp Dewpoint Dewpoint Depression Visibility Wind Speed Wind Dir Waves Ship Positions

Northern Mariner

Owner: LMW Investmrnts Inc., San Diego, CA. More information available from US FCC via Universal Licensing System and Coast Guard Vessel Documentation Center.

Last reported at 2018-Feb-22 10:39 UTC. Time now 2018-Feb-26 01:57 UTC.
Position N 32°39' W 117°22'.

Length 22 m; draft 3 m.

Type: Towing. MMSI: 367116840.

Date/timePositionNaut miles runAvg speedWind from/ knotsBaromVisibWave heightAir tempDewpointWater temp
2018-Feb-22 10:39N 32°39' W 117°22'1 4.7
2018-Feb-22 10:30N 32°39' W 117°23'2 4.8
2018-Feb-22 10:00N 32°40' W 117°25'2 4.7
2018-Feb-22 09:30N 32°40' W 117°28'2 4.9
2018-Feb-22 09:00N 32°41' W 117°31'3 4.9
2018-Feb-22 08:29N 32°42' W 117°34'2 5.0
2018-Feb-22 07:59N 32°43' W 117°36'2 5.0
2018-Feb-22 07:30N 32°44' W 117°39'3 5.2
2018-Feb-22 07:00N 32°45' W 117°42'2 0.1
2018-Feb-21 05:05N 32°43' W 117°44'1 5.4
2018-Feb-21 04:59N 32°43' W 117°44'6 5.1
2018-Feb-21 03:48N 32°42' W 117°37'2 5.1
2018-Feb-21 03:29N 32°42' W 117°35'3 5.1
2018-Feb-21 03:00N 32°41' W 117°32'3 5.1
2018-Feb-21 02:30N 32°40' W 117°29'3 5.2
2018-Feb-21 02:00N 32°40' W 117°26'  
2018-Feb-15 12:58N 32°43' W 117°12'7 5.7
2018-Feb-15 11:50N 32°37' W 117°15'2 5.1
2018-Feb-15 11:29N 32°37' W 117°17'3 4.8
2018-Feb-15 10:53N 32°39' W 117°20'2 5.4
2018-Feb-15 10:30N 32°39' W 117°23'3 5.4
2018-Feb-15 10:00N 32°41' W 117°26'3 5.3
2018-Feb-15 09:30N 32°42' W 117°28'3 5.6
2018-Feb-15 09:00N 32°43' W 117°32'3 5.4
2018-Feb-15 08:30N 32°44' W 117°35'3 5.4
2018-Feb-15 08:00N 32°44' W 117°38'3 5.5
2018-Feb-15 07:30N 32°45' W 117°41'4 0.2
2018-Feb-14 05:45N 32°44' W 117°45'1 5.3
2018-Feb-14 05:30N 32°44' W 117°44'3 5.3
2018-Feb-14 05:00N 32°43' W 117°41'3 5.5
2018-Feb-14 04:27N 32°42' W 117°37'3 5.6
2018-Feb-14 03:58N 32°41' W 117°34'3 5.4
2018-Feb-14 03:30N 32°41' W 117°31'3 5.4
2018-Feb-14 03:00N 32°40' W 117°28'  

Dump ship's entire track history